Time;durP1;ratioP1;P1;durP2;ratioP2;P2;SDS_P1;SDS_P2;PMS_P1;PMS_P2;Temp;Humidity;BMP_temperature;BMP_pressure;BME280_temperature;BME280_humidity;BME280_pressure;Samples;Min_cycle;Max_cycle;Signal;HPM_P1;HPM_P2
2023/04/13 00:00:22;;;;;;;1.23;0.82;;;6.70;99.90;;;;;;5017733;28;20431;-77
2023/04/13 00:02:54;;;;;;;1.95;0.80;;;6.60;99.90;;;;;;5000619;28;20108;-76
2023/04/13 00:05:20;;;;;;;1.77;0.90;;;6.70;99.90;;;;;;4998593;28;20103;-77
2023/04/13 00:07:47;;;;;;;2.78;1.00;;;6.70;99.90;;;;;;5050766;28;20124;-77
2023/04/13 00:10:14;;;;;;;1.70;0.70;;;6.70;99.90;;;;;;5016637;28;20281;-77
2023/04/13 00:12:41;;;;;;;2.55;1.20;;;6.70;99.90;;;;;;4999573;28;20299;-76
2023/04/13 00:15:08;;;;;;;1.73;0.82;;;6.80;99.90;;;;;;5050036;28;20822;-76
2023/04/13 00:17:34;;;;;;;1.92;1.05;;;6.80;99.90;;;;;;5020113;28;20582;-76
2023/04/13 00:20:00;;;;;;;2.45;1.05;;;6.80;99.90;;;;;;4995512;28;20048;-76
2023/04/13 00:22:29;;;;;;;1.55;0.82;;;6.80;99.90;;;;;;5033385;28;20038;-76
2023/04/13 00:24:54;;;;;;;1.98;1.10;;;6.80;99.90;;;;;;5018432;28;20156;-76
2023/04/13 00:27:22;;;;;;;2.67;1.20;;;6.80;99.90;;;;;;5036681;28;20172;-77
2023/04/13 00:29:48;;;;;;;2.25;1.17;;;6.80;99.90;;;;;;5049514;28;20045;-76
2023/04/13 00:32:13;;;;;;;2.50;1.30;;;6.90;99.90;;;;;;5001718;28;20034;-77
2023/04/13 00:34:39;;;;;;;3.08;1.17;;;6.80;99.90;;;;;;5018480;28;20104;-76
2023/04/13 00:37:06;;;;;;;3.25;1.52;;;6.90;99.90;;;;;;5000860;28;20046;-77
2023/04/13 00:39:32;;;;;;;2.15;1.08;;;6.90;99.90;;;;;;5000448;28;20065;-77
2023/04/13 00:41:58;;;;;;;2.72;1.30;;;6.90;99.90;;;;;;5024729;28;20041;-76
2023/04/13 00:44:24;;;;;;;3.28;1.00;;;6.90;99.90;;;;;;5000399;28;20038;-76
2023/04/13 00:46:53;;;;;;;2.03;1.00;;;6.90;99.90;;;;;;5015828;28;20037;-77
2023/04/13 00:49:20;;;;;;;1.10;0.60;;;7.00;99.90;;;;;;5028045;28;20656;-77
2023/04/13 00:51:46;;;;;;;5.32;0.90;;;6.90;99.90;;;;;;5019126;28;20428;-77
2023/04/13 00:54:14;;;;;;;1.15;0.73;;;6.90;99.90;;;;;;5050318;28;20454;-77
2023/04/13 00:56:41;;;;;;;2.13;0.65;;;7.00;99.90;;;;;;5001707;28;20038;-77
2023/04/13 00:59:09;;;;;;;2.08;0.80;;;7.00;99.90;;;;;;5034333;28;20049;-77
2023/04/13 01:01:44;;;;;;;1.88;0.82;;;7.00;99.90;;;;;;5017531;28;20044;-77
2023/04/13 01:04:13;;;;;;;1.10;0.75;;;7.00;99.90;;;;;;5015457;28;20040;-77
2023/04/13 01:06:43;;;;;;;1.48;0.70;;;7.00;99.90;;;;;;4989938;28;20043;-77
2023/04/13 01:09:20;;;;;;;1.08;0.63;;;7.00;99.90;;;;;;5004181;28;20042;-77
2023/04/13 01:12:17;;;;;;;1.52;0.77;;;7.00;99.90;;;;;;5021156;28;20046;-77
2023/04/13 01:15:01;;;;;;;1.52;0.70;;;7.00;99.90;;;;;;5032635;28;20038;-77
2023/04/13 01:17:31;;;;;;;2.60;0.70;;;7.00;99.90;;;;;;5037829;28;20668;-77
2023/04/13 01:20:15;;;;;;;1.98;0.75;;;7.00;99.90;;;;;;5004491;28;20046;-77
2023/04/13 01:22:54;;;;;;;2.35;0.50;;;6.90;99.90;;;;;;5006548;28;20046;-76
2023/04/13 01:25:40;;;;;;;1.38;0.75;;;7.00;99.90;;;;;;5038234;28;20134;-77
2023/04/13 01:28:14;;;;;;;1.27;0.50;;;6.90;99.90;;;;;;5023554;28;20515;-77
2023/04/13 01:30:41;;;;;;;3.45;0.70;;;6.90;99.90;;;;;;5024531;28;20046;-77
2023/04/13 01:33:09;;;;;;;0.88;0.40;;;6.90;99.90;;;;;;5022861;28;20384;-77
2023/04/13 01:35:35;;;;;;;1.25;0.45;;;6.80;99.90;;;;;;5000009;28;21491;-77
2023/04/13 01:38:02;;;;;;;0.43;0.20;;;6.80;99.90;;;;;;5006429;28;20033;-78
2023/04/13 01:40:30;;;;;;;1.33;0.40;;;6.80;99.90;;;;;;5004376;28;20070;-77
2023/04/13 01:42:56;;;;;;;1.83;0.65;;;6.80;99.90;;;;;;5007103;28;20045;-77
2023/04/13 01:45:28;;;;;;;0.70;0.50;;;6.80;99.90;;;;;;5003925;28;20038;-77
2023/04/13 01:48:10;;;;;;;3.70;0.52;;;6.80;99.90;;;;;;5034784;28;20503;-77
2023/04/13 01:50:50;;;;;;;5.18;0.68;;;6.80;99.90;;;;;;4996821;28;20045;-77
2023/04/13 01:53:27;;;;;;;0.95;0.43;;;6.90;99.90;;;;;;5021927;28;20044;-77
2023/04/13 01:55:53;;;;;;;0.75;0.40;;;6.80;99.90;;;;;;5036784;28;20399;-77
2023/04/13 01:58:20;;;;;;;1.00;0.50;;;6.80;99.90;;;;;;5005853;28;20049;-77
2023/04/13 02:00:46;;;;;;;0.80;0.38;;;6.80;99.90;;;;;;5004335;28;20495;-77
2023/04/13 02:03:14;;;;;;;1.08;0.50;;;6.80;99.90;;;;;;5024623;28;20507;-77
2023/04/13 02:05:39;;;;;;;3.67;0.40;;;6.80;99.90;;;;;;5011879;28;20396;-77
2023/04/13 02:08:08;;;;;;;0.90;0.50;;;6.80;99.90;;;;;;5022006;28;20492;-76
2023/04/13 02:10:35;;;;;;;1.65;0.52;;;6.80;99.90;;;;;;5003387;28;20054;-77
2023/04/13 02:13:02;;;;;;;1.35;0.38;;;6.80;99.90;;;;;;5035083;28;20484;-77
2023/04/13 02:15:29;;;;;;;0.90;0.30;;;6.80;99.90;;;;;;5037885;28;20038;-76
2023/04/13 02:17:55;;;;;;;1.15;0.70;;;6.80;99.90;;;;;;5003019;28;20046;-77
2023/04/13 02:20:21;;;;;;;0.73;0.30;;;6.80;99.90;;;;;;5028869;28;20443;-77
2023/04/13 02:22:46;;;;;;;1.02;0.50;;;6.80;99.90;;;;;;5035387;28;20807;-77
2023/04/13 02:25:14;;;;;;;4.25;0.50;;;6.80;99.90;;;;;;5032784;28;20034;-77
2023/04/13 02:27:40;;;;;;;1.38;0.40;;;6.80;99.90;;;;;;5021161;28;20113;-77
2023/04/13 02:30:06;;;;;;;2.42;0.50;;;6.80;99.90;;;;;;5003973;28;20121;-77
2023/04/13 02:32:34;;;;;;;0.90;0.55;;;6.80;99.90;;;;;;5005385;28;20475;-77
2023/04/13 02:35:00;;;;;;;0.82;0.38;;;6.80;99.90;;;;;;5016157;28;20556;-77
2023/04/13 02:37:30;;;;;;;1.58;0.45;;;6.80;99.90;;;;;;5036250;28;20172;-77
2023/04/13 02:39:55;;;;;;;0.57;0.25;;;6.70;99.90;;;;;;5002379;28;20354;-77
2023/04/13 02:42:22;;;;;;;1.17;0.40;;;6.80;99.90;;;;;;4985997;28;20037;-77
2023/04/13 02:44:48;;;;;;;0.70;0.40;;;6.70;99.90;;;;;;5046855;28;20468;-77
2023/04/13 02:47:15;;;;;;;2.28;0.40;;;6.80;99.90;;;;;;5020215;28;20404;-77
2023/04/13 02:49:41;;;;;;;0.55;0.40;;;6.80;99.90;;;;;;5002488;28;20502;-76
2023/04/13 02:52:07;;;;;;;0.80;0.30;;;6.70;99.90;;;;;;4997595;28;20438;-77
2023/04/13 02:54:33;;;;;;;0.52;0.30;;;6.70;99.90;;;;;;5036541;28;20404;-77
2023/04/13 02:57:00;;;;;;;1.02;0.50;;;6.80;99.90;;;;;;5020698;28;20049;-77
2023/04/13 02:59:27;;;;;;;0.82;0.30;;;6.80;99.90;;;;;;5018892;28;20136;-77
2023/04/13 03:01:57;;;;;;;2.00;0.45;;;6.80;99.90;;;;;;5020717;28;20084;-77
2023/04/13 03:04:23;;;;;;;0.40;0.20;;;6.80;99.90;;;;;;5003110;28;20056;-76
2023/04/13 03:06:49;;;;;;;0.68;0.40;;;6.70;99.90;;;;;;5017175;28;20458;-77
2023/04/13 03:09:16;;;;;;;1.63;0.40;;;6.70;99.90;;;;;;5018371;28;20250;-77
2023/04/13 03:11:42;;;;;;;1.27;0.40;;;6.70;99.90;;;;;;5036943;28;20057;-77
2023/04/13 03:14:11;;;;;;;0.98;0.30;;;6.70;99.90;;;;;;5014805;28;20046;-77
2023/04/13 03:16:37;;;;;;;0.88;0.50;;;6.80;99.90;;;;;;5004007;28;20508;-77
2023/04/13 03:19:04;;;;;;;1.05;0.40;;;6.80;99.90;;;;;;4997028;28;20041;-77
2023/04/13 03:21:30;;;;;;;0.68;0.40;;;6.70;99.90;;;;;;5019929;28;20053;-77
2023/04/13 03:23:56;;;;;;;1.52;0.43;;;6.70;99.90;;;;;;5005015;28;20041;-77
2023/04/13 03:26:24;;;;;;;0.88;0.45;;;6.70;99.90;;;;;;5020475;28;20044;-77
2023/04/13 03:28:50;;;;;;;1.27;0.45;;;6.70;99.90;;;;;;5018526;28;20085;-78
2023/04/13 03:31:16;;;;;;;0.55;0.30;;;6.70;99.90;;;;;;5019736;28;20038;-77
2023/04/13 03:33:42;;;;;;;1.05;0.28;;;6.70;99.90;;;;;;5018141;28;20041;-77
2023/04/13 03:36:08;;;;;;;2.97;0.40;;;6.70;99.90;;;;;;5031980;28;20564;-77
2023/04/13 03:38:34;;;;;;;0.80;0.30;;;6.70;99.90;;;;;;5003498;28;20037;-77
2023/04/13 03:40:59;;;;;;;1.63;0.57;;;6.70;99.90;;;;;;5033909;28;20068;-77
2023/04/13 03:43:25;;;;;;;0.73;0.32;;;6.70;99.90;;;;;;5003629;28;20036;-77
2023/04/13 03:45:51;;;;;;;1.75;0.45;;;6.80;99.90;;;;;;5018465;28;20399;-77
2023/04/13 03:48:17;;;;;;;0.30;0.20;;;6.70;99.90;;;;;;4997064;28;20116;-77
2023/04/13 03:50:42;;;;;;;1.02;0.52;;;6.80;99.90;;;;;;5017126;28;20554;-77
2023/04/13 03:53:08;;;;;;;0.88;0.40;;;6.80;99.90;;;;;;5002101;28;20092;-77
2023/04/13 03:55:34;;;;;;;0.65;0.40;;;6.70;99.90;;;;;;5020342;28;20037;-77
2023/04/13 03:58:00;;;;;;;0.70;0.30;;;6.80;99.90;;;;;;5001983;28;21183;-78
2023/04/13 04:00:26;;;;;;;0.60;0.40;;;6.80;99.90;;;;;;5018707;28;20502;-77
2023/04/13 04:02:52;;;;;;;1.27;0.82;;;6.70;99.90;;;;;;5002930;28;20042;-78
2023/04/13 04:05:17;;;;;;;1.58;0.50;;;6.80;99.90;;;;;;4998603;28;20050;-78
2023/04/13 04:07:43;;;;;;;0.60;0.40;;;6.70;99.90;;;;;;5004405;28;20056;-78
2023/04/13 04:10:09;;;;;;;0.40;0.30;;;6.80;99.90;;;;;;5019315;28;20064;-78
2023/04/13 04:12:35;;;;;;;3.65;0.50;;;6.80;99.90;;;;;;5002456;28;20464;-77
2023/04/13 04:15:00;;;;;;;1.65;0.40;;;6.80;99.90;;;;;;5035008;28;20073;-78
2023/04/13 04:17:26;;;;;;;1.00;0.50;;;6.80;99.90;;;;;;5047289;28;20036;-77
2023/04/13 04:19:52;;;;;;;1.20;0.50;;;6.80;99.90;;;;;;5000889;28;20052;-77
2023/04/13 04:22:17;;;;;;;1.27;0.50;;;6.80;99.90;;;;;;5020845;28;20145;-77
2023/04/13 04:24:44;;;;;;;1.05;0.70;;;6.80;99.90;;;;;;5003958;28;20034;-77
2023/04/13 04:27:10;;;;;;;0.68;0.43;;;6.80;99.90;;;;;;5019986;28;20033;-78
2023/04/13 04:29:35;;;;;;;1.08;0.38;;;6.80;99.90;;;;;;5020236;28;20042;-77
2023/04/13 04:32:03;;;;;;;1.52;0.38;;;6.80;99.90;;;;;;5009800;28;20990;-78
2023/04/13 04:34:29;;;;;;;1.38;0.60;;;6.80;99.90;;;;;;5002857;28;20491;-77
2023/04/13 04:36:55;;;;;;;0.82;0.45;;;6.80;99.90;;;;;;5015642;28;20045;-77
2023/04/13 04:39:21;;;;;;;1.70;0.98;;;6.80;99.90;;;;;;5019262;28;20526;-78
2023/04/13 04:41:53;;;;;;;1.38;0.50;;;6.80;99.90;;;;;;5001926;28;20045;-78
2023/04/13 04:44:23;;;;;;;2.50;0.90;;;6.80;99.90;;;;;;5021797;28;20045;-78
2023/04/13 04:46:51;;;;;;;0.82;0.50;;;6.80;99.90;;;;;;5020047;28;20242;-77
2023/04/13 04:49:17;;;;;;;1.77;0.85;;;6.90;99.90;;;;;;5023443;28;20042;-77
2023/04/13 04:51:43;;;;;;;1.38;0.63;;;6.80;99.90;;;;;;5018847;28;20030;-77
2023/04/13 04:54:09;;;;;;;2.25;0.88;;;6.90;99.90;;;;;;5004805;28;20568;-77
2023/04/13 04:56:35;;;;;;;1.60;0.55;;;6.90;99.90;;;;;;5005108;28;20038;-77
2023/04/13 04:59:00;;;;;;;1.58;1.00;;;6.80;99.90;;;;;;5023412;28;20151;-77
2023/04/13 05:01:26;;;;;;;3.90;0.77;;;6.80;99.90;;;;;;5003413;28;20048;-78
2023/04/13 05:03:52;;;;;;;1.85;0.73;;;6.90;99.90;;;;;;4986044;28;20289;-77
2023/04/13 05:06:18;;;;;;;1.60;0.80;;;6.80;99.90;;;;;;4994909;28;20045;-77
2023/04/13 05:08:44;;;;;;;1.23;0.50;;;6.80;99.90;;;;;;5007345;28;20446;-78
2023/04/13 05:11:10;;;;;;;1.80;0.70;;;6.80;99.90;;;;;;5022553;28;20054;-77
2023/04/13 05:13:35;;;;;;;2.55;1.15;;;6.80;99.90;;;;;;5007149;28;20042;-77
2023/04/13 05:16:02;;;;;;;1.52;0.80;;;6.80;99.90;;;;;;5019549;28;20033;-78
2023/04/13 05:18:31;;;;;;;1.00;0.50;;;6.80;99.90;;;;;;5021918;28;20049;-77
2023/04/13 05:20:57;;;;;;;1.80;0.93;;;6.70;99.90;;;;;;5006859;28;20209;-78
2023/04/13 05:23:23;;;;;;;2.85;0.93;;;6.70;99.90;;;;;;5035106;28;20195;-78
2023/04/13 05:25:51;;;;;;;2.17;0.90;;;6.70;99.90;;;;;;4987807;28;20127;-78
2023/04/13 05:28:17;;;;;;;2.17;0.93;;;6.70;99.90;;;;;;5006708;28;20048;-78
2023/04/13 05:30:43;;;;;;;2.97;0.90;;;6.60;99.90;;;;;;5022152;28;20042;-77
2023/04/13 05:33:10;;;;;;;1.13;0.75;;;6.60;99.90;;;;;;5034317;28;20038;-78
2023/04/13 05:35:38;;;;;;;2.58;0.73;;;6.70;99.90;;;;;;5036583;28;20491;-78
2023/04/13 05:38:04;;;;;;;2.42;1.23;;;6.70;99.90;;;;;;5014944;28;20038;-77
2023/04/13 05:40:32;;;;;;;1.95;1.05;;;6.70;99.90;;;;;;5038992;28;20038;-78
2023/04/13 05:42:58;;;;;;;2.10;0.85;;;6.70;99.90;;;;;;5006397;28;20056;-78
2023/04/13 05:45:23;;;;;;;1.73;0.80;;;6.70;99.90;;;;;;5018615;28;20026;-77
2023/04/13 05:47:49;;;;;;;1.88;0.90;;;6.70;99.90;;;;;;5021216;28;20030;-78
2023/04/13 05:50:14;;;;;;;2.53;1.35;;;6.70;99.90;;;;;;5005838;28;20076;-78
2023/04/13 05:52:40;;;;;;;5.50;0.98;;;6.80;99.90;;;;;;5000857;28;20042;-78
2023/04/13 05:55:06;;;;;;;1.58;0.75;;;6.80;99.90;;;;;;5036485;28;20053;-77
2023/04/13 05:57:32;;;;;;;2.10;0.90;;;6.80;99.90;;;;;;5015052;28;20038;-78
2023/04/13 05:59:58;;;;;;;1.63;1.02;;;6.80;99.90;;;;;;5016775;28;20041;-78
2023/04/13 06:02:25;;;;;;;2.13;0.80;;;6.80;99.90;;;;;;5039136;28;20048;-78
2023/04/13 06:04:53;;;;;;;2.97;0.73;;;6.90;99.90;;;;;;4985599;28;20041;-78
2023/04/13 06:07:20;;;;;;;2.97;0.93;;;6.90;99.90;;;;;;5003668;28;20040;-77
2023/04/13 06:09:46;;;;;;;1.30;0.73;;;7.00;99.90;;;;;;5038528;28;20034;-77
2023/04/13 06:12:12;;;;;;;2.30;0.90;;;7.10;99.90;;;;;;5021002;28;20053;-78
2023/04/13 06:14:39;;;;;;;1.50;0.60;;;7.10;99.90;;;;;;5000058;28;20050;-78
2023/04/13 06:17:05;;;;;;;2.85;0.98;;;7.10;99.90;;;;;;5035938;28;20220;-78
2023/04/13 06:19:31;;;;;;;5.03;1.42;;;7.10;99.90;;;;;;5017176;28;20061;-78
2023/04/13 06:21:57;;;;;;;5.65;1.20;;;7.20;99.90;;;;;;4997672;28;20045;-78
2023/04/13 06:24:22;;;;;;;3.08;1.08;;;7.10;99.90;;;;;;5010812;28;20487;-78
2023/04/13 06:26:48;;;;;;;3.63;1.20;;;7.20;99.90;;;;;;5020995;28;20094;-78
2023/04/13 06:29:14;;;;;;;2.53;1.45;;;7.20;99.90;;;;;;5037119;28;20137;-78
2023/04/13 06:31:39;;;;;;;3.45;1.00;;;7.20;99.90;;;;;;5004277;28;20289;-78
2023/04/13 06:34:06;;;;;;;1.70;0.75;;;7.20;99.90;;;;;;5016362;28;20110;-78
2023/04/13 06:36:31;;;;;;;1.98;0.70;;;7.20;99.90;;;;;;5018450;28;20476;-78
2023/04/13 06:38:57;;;;;;;2.92;1.02;;;7.20;99.90;;;;;;5003684;28;20144;-78
2023/04/13 06:41:23;;;;;;;2.95;1.20;;;7.30;99.90;;;;;;5036519;28;20042;-78
2023/04/13 06:43:48;;;;;;;4.28;1.27;;;7.40;99.90;;;;;;5001079;28;20041;-77
2023/04/13 06:46:14;;;;;;;2.58;1.10;;;7.40;99.90;;;;;;5005308;28;20558;-78
2023/04/13 06:48:40;;;;;;;3.65;1.70;;;7.50;99.90;;;;;;5004414;28;20052;-78
2023/04/13 06:51:06;;;;;;;3.28;1.42;;;7.50;99.90;;;;;;4999228;28;20034;-78
2023/04/13 06:53:31;;;;;;;3.55;1.25;;;7.50;99.90;;;;;;5002769;28;20578;-77
2023/04/13 06:55:57;;;;;;;3.42;1.27;;;7.60;99.90;;;;;;4998220;28;20479;-78
2023/04/13 06:58:23;;;;;;;3.20;1.10;;;7.70;99.90;;;;;;5035776;28;20085;-79
2023/04/13 07:00:49;;;;;;;3.60;2.00;;;7.70;99.90;;;;;;5035370;28;20054;-77
2023/04/13 07:03:14;;;;;;;3.53;1.38;;;7.70;99.90;;;;;;4985177;28;22107;-78
2023/04/13 07:05:40;;;;;;;2.85;1.27;;;7.80;99.90;;;;;;5004891;28;20129;-78
2023/04/13 07:08:06;;;;;;;4.35;1.25;;;7.80;99.90;;;;;;5003261;28;20033;-78
2023/04/13 07:10:31;;;;;;;4.72;1.40;;;7.90;99.90;;;;;;5000141;28;20495;-77
2023/04/13 07:12:57;;;;;;;5.68;1.05;;;7.80;99.90;;;;;;5015961;28;20092;-78
2023/04/13 07:15:23;;;;;;;2.85;1.25;;;7.90;99.90;;;;;;5019562;28;20492;-77
2023/04/13 07:17:48;;;;;;;2.47;0.98;;;7.90;99.90;;;;;;5017684;28;20578;-78
2023/04/13 07:20:15;;;;;;;3.72;1.13;;;7.90;99.90;;;;;;5002792;28;20049;-78
2023/04/13 07:22:40;;;;;;;2.03;1.10;;;7.90;99.90;;;;;;5041861;28;20126;-78
2023/04/13 07:25:06;;;;;;;1.60;0.90;;;8.00;99.90;;;;;;5024989;28;20134;-78
2023/04/13 07:27:32;;;;;;;6.85;1.35;;;8.00;99.90;;;;;;5042310;28;20080;-78
2023/04/13 07:29:59;;;;;;;1.92;0.80;;;8.00;99.90;;;;;;5052062;28;20046;-78
2023/04/13 07:32:26;;;;;;;2.58;1.08;;;8.00;99.90;;;;;;5008313;28;20042;-78
2023/04/13 07:34:52;;;;;;;2.33;1.13;;;8.00;99.90;;;;;;5008995;28;20046;-78
2023/04/13 07:37:17;;;;;;;2.42;1.08;;;8.10;99.90;;;;;;5009325;28;20141;-78
2023/04/13 07:39:43;;;;;;;2.38;0.90;;;8.10;99.90;;;;;;5006795;28;20030;-78
2023/04/13 07:42:10;;;;;;;4.13;0.98;;;8.10;99.90;;;;;;5008950;28;20119;-78
2023/04/13 07:44:35;;;;;;;2.28;1.00;;;8.10;99.90;;;;;;5058874;28;20053;-78
2023/04/13 07:47:01;;;;;;;2.20;1.00;;;8.10;99.90;;;;;;5007135;28;20045;-78
2023/04/13 07:49:27;;;;;;;2.20;0.90;;;8.20;99.90;;;;;;5008633;28;20526;-78
2023/04/13 07:51:53;;;;;;;2.33;0.80;;;8.30;99.90;;;;;;5008348;28;20072;-78
2023/04/13 07:54:18;;;;;;;1.80;0.98;;;8.30;99.90;;;;;;5008583;28;20038;-78
2023/04/13 07:56:44;;;;;;;4.40;1.17;;;8.30;99.90;;;;;;5006486;28;20117;-78
2023/04/13 07:59:10;;;;;;;3.38;1.05;;;8.30;99.90;;;;;;5038873;28;20365;-78
2023/04/13 08:01:35;;;;;;;2.08;0.95;;;8.30;99.90;;;;;;5040607;28;20538;-78
2023/04/13 08:04:01;;;;;;;1.70;0.82;;;8.30;99.90;;;;;;5028480;28;20033;-78
2023/04/13 08:06:27;;;;;;;2.22;1.00;;;8.30;99.90;;;;;;5014676;28;20788;-79
2023/04/13 08:08:53;;;;;;;2.00;0.70;;;8.20;99.90;;;;;;5016580;28;20050;-78
2023/04/13 08:11:19;;;;;;;1.23;0.70;;;8.20;99.90;;;;;;5019145;28;20050;-79
2023/04/13 08:13:45;;;;;;;3.58;0.60;;;8.10;99.90;;;;;;5027379;28;20026;-78
2023/04/13 08:16:11;;;;;;;2.67;0.93;;;8.10;99.90;;;;;;5026257;28;20467;-79
2023/04/13 08:18:37;;;;;;;3.10;0.90;;;8.00;99.90;;;;;;4997929;28;20041;-79
2023/04/13 08:21:09;;;;;;;4.15;1.00;;;8.00;99.90;;;;;;5016159;28;20093;-79
2023/04/13 08:23:36;;;;;;;1.85;0.85;;;8.00;99.90;;;;;;5033734;28;20038;-79
2023/04/13 08:26:02;;;;;;;2.13;0.90;;;8.00;99.90;;;;;;5026292;28;20684;-78
2023/04/13 08:28:28;;;;;;;2.17;0.80;;;8.00;99.90;;;;;;5013189;28;20053;-79
2023/04/13 08:30:53;;;;;;;2.20;0.85;;;7.90;99.90;;;;;;5028684;28;20121;-79
2023/04/13 08:33:19;;;;;;;2.45;0.73;;;7.90;99.90;;;;;;5032215;28;20394;-79
2023/04/13 08:35:45;;;;;;;2.30;0.77;;;7.90;99.90;;;;;;4993751;28;20365;-78
2023/04/13 08:38:11;;;;;;;4.15;0.85;;;8.00;99.90;;;;;;4994809;28;20034;-79
2023/04/13 08:40:38;;;;;;;1.95;0.98;;;8.00;99.90;;;;;;5027685;28;20038;-79
2023/04/13 08:43:04;;;;;;;1.23;0.52;;;8.10;99.90;;;;;;5016807;28;20551;-79
2023/04/13 08:45:31;;;;;;;1.35;0.50;;;8.20;99.90;;;;;;5011671;28;20381;-79
2023/04/13 08:47:57;;;;;;;1.90;0.73;;;8.20;99.90;;;;;;5005090;28;20436;-79
2023/04/13 08:50:25;;;;;;;1.65;0.75;;;8.20;99.90;;;;;;4995020;28;20739;-79
2023/04/13 08:52:53;;;;;;;1.10;0.40;;;8.20;99.90;;;;;;4986107;28;20038;-79
2023/04/13 08:55:19;;;;;;;0.57;0.30;;;8.20;99.90;;;;;;5001332;28;20129;-77
2023/04/13 08:57:47;;;;;;;0.55;0.40;;;8.10;99.90;;;;;;5016758;28;20061;-80
2023/04/13 09:00:16;;;;;;;0.60;0.43;;;8.10;99.90;;;;;;5016282;28;20519;-78
2023/04/13 09:02:47;;;;;;;1.15;0.50;;;8.10;99.90;;;;;;5034139;28;20159;-79
2023/04/13 09:05:16;;;;;;;4.13;0.60;;;8.10;99.90;;;;;;5019173;28;20594;-79
2023/04/13 09:07:52;;;;;;;0.60;0.40;;;8.10;99.90;;;;;;5029865;28;20043;-80
2023/04/13 09:10:19;;;;;;;0.30;0.30;;;8.10;99.90;;;;;;5036674;28;20290;-79
2023/04/13 09:12:45;;;;;;;0.17;0.17;;;8.00;99.90;;;;;;5048541;28;20042;-79
2023/04/13 09:15:16;;;;;;;0.50;0.20;;;8.00;99.90;;;;;;5010121;28;20030;-79
2023/04/13 09:17:42;;;;;;;0.47;0.30;;;7.90;99.90;;;;;;5003235;28;20135;-78
2023/04/13 09:20:15;;;;;;;1.00;0.30;;;7.80;99.90;;;;;;5054376;28;20042;-75
2023/04/13 09:22:41;;;;;;;1.00;0.40;;;7.80;99.90;;;;;;5017607;28;20038;-79
2023/04/13 09:25:18;;;;;;;0.20;0.10;;;7.80;99.90;;;;;;4993753;28;20049;-79
2023/04/13 09:27:44;;;;;;;0.38;0.20;;;7.90;99.90;;;;;;5039547;28;20038;-78
2023/04/13 09:30:11;;;;;;;0.10;0.10;;;7.90;99.90;;;;;;5018850;28;20053;-79
2023/04/13 09:32:37;;;;;;;0.40;0.20;;;8.00;99.90;;;;;;5039710;28;20038;-79
2023/04/13 09:35:04;;;;;;;0.35;0.10;;;8.10;99.90;;;;;;4989851;28;20092;-78
2023/04/13 09:37:35;;;;;;;1.45;0.47;;;8.10;99.90;;;;;;5027197;28;20455;-79
2023/04/13 09:40:14;;;;;;;2.47;0.20;;;8.10;99.90;;;;;;4987464;28;20046;-78
2023/04/13 09:43:03;;;;;;;0.82;0.45;;;8.10;99.90;;;;;;5005652;28;20121;-78
2023/04/13 09:45:37;;;;;;;1.40;0.20;;;8.10;99.90;;;;;;5036742;28;20601;-79
2023/04/13 09:48:05;;;;;;;0.52;0.30;;;8.20;99.90;;;;;;5007745;28;20046;-79
2023/04/13 09:50:32;;;;;;;1.02;0.50;;;8.30;99.90;;;;;;5011633;28;20038;-79
2023/04/13 09:53:05;;;;;;;1.60;0.45;;;8.50;99.90;;;;;;4992491;28;20112;-78
2023/04/13 09:55:32;;;;;;;0.95;0.68;;;8.60;99.90;;;;;;4984771;28;20061;-79
2023/04/13 09:58:15;;;;;;;1.35;0.38;;;8.70;99.90;;;;;;5006062;28;20038;-79
2023/04/13 10:00:43;;;;;;;2.13;0.60;;;8.80;99.90;;;;;;5020465;28;20720;-78
2023/04/13 10:03:10;;;;;;;2.45;0.68;;;9.00;99.90;;;;;;4992025;28;20050;-78
2023/04/13 10:05:37;;;;;;;1.70;0.38;;;9.10;99.90;;;;;;5024799;28;20100;-79
2023/04/13 10:08:04;;;;;;;3.85;0.70;;;9.30;99.90;;;;;;5000575;28;20038;-79
2023/04/13 10:10:30;;;;;;;0.82;0.43;;;9.30;99.90;;;;;;5028584;28;20058;-79
2023/04/13 10:13:01;;;;;;;1.25;0.52;;;9.20;99.90;;;;;;5028191;28;20038;-79
2023/04/13 10:15:38;;;;;;;0.95;0.47;;;9.20;99.90;;;;;;5032220;28;20044;-79
2023/04/13 10:18:07;;;;;;;3.45;0.65;;;9.10;99.90;;;;;;5028266;28;20511;-79
2023/04/13 10:20:34;;;;;;;0.45;0.20;;;8.90;99.90;;;;;;5015219;28;20034;-79
2023/04/13 10:23:01;;;;;;;1.02;0.30;;;8.70;99.90;;;;;;4993692;28;20041;-78
2023/04/13 10:25:27;;;;;;;0.65;0.20;;;8.50;99.90;;;;;;5032078;28;20405;-78
2023/04/13 10:27:57;;;;;;;0.75;0.32;;;8.40;99.90;;;;;;5032168;28;20070;-79
2023/04/13 10:30:23;;;;;;;0.82;0.20;;;8.30;99.90;;;;;;5046126;28;20041;-78
2023/04/13 10:33:04;;;;;;;1.90;0.30;;;8.30;99.90;;;;;;4999150;28;20045;-78
2023/04/13 10:35:32;;;;;;;2.45;0.20;;;8.30;99.90;;;;;;5030671;28;20041;-78
2023/04/13 10:37:58;;;;;;;0.80;0.30;;;8.20;99.90;;;;;;5034452;28;20048;-78
2023/04/13 10:40:23;;;;;;;0.85;0.30;;;8.30;99.90;;;;;;5000601;28;20045;-78
2023/04/13 10:42:50;;;;;;;1.30;0.30;;;8.30;99.90;;;;;;5003099;28;20046;-78
2023/04/13 10:45:19;;;;;;;3.47;0.60;;;8.40;99.90;;;;;;5017048;28;20045;-78
2023/04/13 10:47:45;;;;;;;1.00;0.40;;;8.50;99.90;;;;;;4999356;28;20419;-78
2023/04/13 10:50:21;;;;;;;2.13;0.40;;;8.50;99.90;;;;;;5000286;28;20060;-77
2023/04/13 10:53:04;;;;;;;1.20;0.22;;;8.60;99.90;;;;;;5031595;28;20038;-78
2023/04/13 10:55:31;;;;;;;2.28;0.32;;;8.60;99.90;;;;;;5034564;28;20053;-78
2023/04/13 10:57:58;;;;;;;2.47;0.38;;;8.50;99.90;;;;;;5001771;28;20039;-77
2023/04/13 11:00:26;;;;;;;0.88;0.60;;;8.40;99.90;;;;;;4990215;28;21476;-77
2023/04/13 11:02:57;;;;;;;0.80;0.40;;;8.30;99.90;;;;;;5044439;28;20037;-76
2023/04/13 11:05:28;;;;;;;1.65;0.50;;;8.40;99.90;;;;;;5029991;28;20519;-76
2023/04/13 11:07:54;;;;;;;3.13;0.25;;;8.50;99.90;;;;;;4998943;28;20049;-76
2023/04/13 11:10:27;;;;;;;3.78;0.50;;;8.50;99.90;;;;;;4999285;28;20050;-77
2023/04/13 11:12:54;;;;;;;4.07;0.60;;;8.60;99.90;;;;;;5034741;28;20123;-76
2023/04/13 11:15:27;;;;;;;1.98;0.40;;;8.70;99.90;;;;;;5044952;28;20487;-76
2023/04/13 11:17:58;;;;;;;2.55;0.60;;;8.80;99.90;;;;;;5028095;28;20455;-77
2023/04/13 11:20:36;;;;;;;2.17;0.60;;;9.00;99.90;;;;;;4996547;28;20046;-78
2023/04/13 11:23:06;;;;;;;2.72;0.70;;;9.10;99.90;;;;;;4981607;28;20092;-78
2023/04/13 11:25:32;;;;;;;5.28;0.93;;;9.20;99.90;;;;;;4995507;28;20038;-78
2023/04/13 11:28:00;;;;;;;3.47;0.90;;;9.30;99.90;;;;;;5029366;28;20403;-78
2023/04/13 11:30:26;;;;;;;3.97;0.63;;;9.30;99.90;;;;;;4997906;28;20535;-77
2023/04/13 11:32:53;;;;;;;1.98;0.57;;;9.30;99.90;;;;;;4995224;28;20563;-77
2023/04/13 11:35:21;;;;;;;2.35;0.52;;;9.30;99.90;;;;;;5024839;28;20297;-78
2023/04/13 11:37:52;;;;;;;5.97;0.90;;;9.40;99.90;;;;;;5015127;28;20025;-78
2023/04/13 11:40:23;;;;;;;2.70;0.80;;;9.30;99.90;;;;;;5020892;28;21363;-77
2023/04/13 11:42:50;;;;;;;4.00;0.77;;;9.30;99.90;;;;;;5031708;28;20514;-77
2023/04/13 11:45:16;;;;;;;3.15;0.50;;;9.40;99.90;;;;;;5010866;28;20029;-78
2023/04/13 11:47:44;;;;;;;2.20;0.68;;;9.40;99.90;;;;;;5016014;28;20172;-77
2023/04/13 11:50:11;;;;;;;1.77;0.80;;;9.50;99.90;;;;;;4992317;28;20049;-78
2023/04/13 11:52:39;;;;;;;5.82;0.73;;;9.50;99.90;;;;;;4978352;28;20126;-78
2023/04/13 11:55:06;;;;;;;3.40;1.05;;;9.50;99.90;;;;;;5007477;28;20042;-78
2023/04/13 11:57:32;;;;;;;0.30;0.30;;;9.60;99.90;;;;;;5030914;28;20042;-78
2023/04/13 11:59:58;;;;;;;1.52;0.73;;;9.60;99.90;;;;;;5048111;28;20574;-78
2023/04/13 12:02:28;;;;;;;3.25;0.55;;;9.70;99.90;;;;;;5000750;28;20079;-78
2023/04/13 12:04:54;;;;;;;3.58;0.90;;;9.70;99.90;;;;;;4998183;28;20053;-78
2023/04/13 12:07:20;;;;;;;3.47;0.68;;;9.80;99.90;;;;;;5025637;28;20046;-78
2023/04/13 12:09:48;;;;;;;4.13;0.50;;;9.80;99.90;;;;;;5000174;28;20042;-78
2023/04/13 12:12:20;;;;;;;2.40;0.60;;;9.70;99.90;;;;;;5014238;28;22083;-78
2023/04/13 12:14:58;;;;;;;3.60;0.52;;;9.80;99.90;;;;;;5010437;28;20038;-79
2023/04/13 12:17:32;;;;;;;3.35;0.60;;;9.80;99.90;;;;;;5012085;28;20120;-78
2023/04/13 12:19:58;;;;;;;1.60;0.40;;;10.00;99.90;;;;;;5045617;28;21089;-78
2023/04/13 12:22:44;;;;;;;1.23;0.50;;;10.10;99.90;;;;;;5026938;28;20153;-78
2023/04/13 12:25:17;;;;;;;1.38;0.50;;;10.10;99.90;;;;;;4999046;28;20100;-78
2023/04/13 12:27:43;;;;;;;3.63;0.60;;;10.10;99.90;;;;;;5000792;28;20084;-78
2023/04/13 12:30:11;;;;;;;2.20;0.52;;;10.10;99.90;;;;;;4998865;28;20038;-78
2023/04/13 12:32:47;;;;;;;3.38;0.30;;;10.10;99.90;;;;;;5016020;28;20100;-78
2023/04/13 12:35:14;;;;;;;1.60;0.90;;;10.10;99.90;;;;;;5016350;28;20514;-78
2023/04/13 12:37:41;;;;;;;2.00;0.68;;;10.00;99.90;;;;;;5019750;28;20025;-78
2023/04/13 12:40:11;;;;;;;8.10;0.73;;;9.90;99.90;;;;;;5048831;28;20042;-79
2023/04/13 12:42:44;;;;;;;2.05;0.50;;;9.80;99.90;;;;;;5031793;28;20038;-78
2023/04/13 12:45:10;;;;;;;1.15;0.50;;;9.80;99.90;;;;;;4998814;28;20411;-78
2023/04/13 12:47:36;;;;;;;3.03;0.60;;;9.80;99.90;;;;;;4998515;28;20060;-78
2023/04/13 12:50:07;;;;;;;3.38;0.70;;;9.80;99.90;;;;;;5014908;28;20053;-78
2023/04/13 12:52:39;;;;;;;3.17;0.95;;;9.90;99.90;;;;;;5000759;28;20048;-78
2023/04/13 12:55:06;;;;;;;3.42;0.60;;;9.90;99.90;;;;;;5018138;28;20100;-78
2023/04/13 12:57:32;;;;;;;1.40;0.80;;;10.00;99.90;;;;;;5000791;28;20034;-79
2023/04/13 12:59:57;;;;;;;3.10;0.73;;;10.00;99.90;;;;;;5000402;28;20068;-78